• Join FlightAware (Why Join?)
  • Login
  • US Flag 
08:45PM EDT


 

Airport Tracker/Info


-or-


 

Live Flight TrackerFlight Track Log ✈ SKW5370 ✈ 20-May-2013 ✈ KORD - KMBS

Flight Track Log - Related Links

Times and Time Zones

All times are in EDT time to prevent confusion due to time zone crossing. See the SKW5370 flight status page for this flight to view local times or setup timezone preferences in your user account.

Time Position Orientation Groundspeed Altitude Reporting Facility
EDT Latitude Longitude Course Direction KTS MPH feet Rate Location/Type
07:44AM 41.9667 -87.9667 14° North 163 188 2,600  Level Chicago TRACON
07:45AM 41.9500 -88.0667 257° West 218 251 4,800 2,040 Climbing Chicago TRACON
07:46AM 42.3044 -87.7947 10° North  Level FlightAware Approximate
07:46AM 42.0000 -88.1167 323° Northwest 293 337 6,700  Level Chicago TRACON
07:47AM 42.4154 -87.7506 20° North  Level FlightAware Approximate
07:47AM 42.0833 -88.1000 North 337 388 8,800  Level Chicago TRACON
07:48AM 42.5302 -87.7289 14° North  Level FlightAware Approximate
07:48AM 42.1919 -88.0583 16° North 341 392 11,300  Level Chicago Center
07:49AM 42.6430 -87.6913 14° North  Level FlightAware Approximate
07:49AM 42.2839 -88.0428 North 362 417 13,000  Level Chicago Center
07:50AM 42.3958 -88.0469 358° North 375 432 14,900 1,920 Climbing Chicago Center
07:51AM 42.5022 -88.0569 356° North 382 440 17,000 2,040 Climbing Chicago Center
07:52AM 42.6067 -88.0633 357° North 377 434 19,200 1,680 Climbing Chicago Center
07:53AM 42.7281 -88.0506 North 383 441 20,500 1,020 Climbing Chicago Center
07:54AM 42.7775 -87.9211 62° Northeast 392 451 21,400 1,080 Climbing Chicago Center
07:55AM 42.8086 -87.7797 73° East 391 450 22,800 1,020 Climbing Chicago Center
07:56AM 42.8383 -87.6364 74° East 395 455 23,500 720 Climbing Chicago Center
07:57AM 42.8694 -87.4906 74° East 398 458 24,300 720 Climbing Chicago Center
07:58AM 42.9028 -87.3381 73° East 409 471 25,000 300 Climbing Chicago Center
07:59AM 42.9350 -87.1872 74° East 415 478 25,000  Level Chicago Center
08:00AM 42.9656 -87.0400 74° East 406 467 25,000  Level Chicago Center
08:01AM 42.9964 -86.8936 74° East 402 463 25,000  Level Chicago Center
08:02AM 43.0325 -86.7197 74° East 398 458 25,000  Level Chicago Center
08:03AM 43.0631 -86.5747 74° East 399 459 25,000  Level Chicago Center
08:05AM 43.0922 -86.4306 74° East 395 455 25,000  Level Chicago Center
08:06AM 43.1219 -86.2814 75° East 403 464 25,000 -300 Level Chicago Center
08:07AM 43.1539 -86.1256 74° East 418 481 24,500 -1,080 Descending Chicago Center
08:08AM 43.1853 -85.9686 75° East 419 482 22,900 -1,500 Descending Chicago Center
08:09AM 43.2136 -85.8206 75° East 402 463 21,400 -1,560 Descending Chicago Center
08:10AM 43.2394 -85.6792 76° East 387 445 19,800 -1,560 Descending Chicago Center
08:11AM 43.2653 -85.5422 75° East 376 433 18,300 -1,500 Descending Chicago Center
08:12AM 43.2911 -85.4081 75° East 367 422 16,800 -1,560 Descending Chicago Center
08:12AM 43.3017 -85.3536 75° East 365 420 16,200 -1,620 Descending Cleveland Center
08:13AM 43.3261 -85.2156 76° East 365 420 14,700 -1,500 Descending Cleveland Center
08:14AM 43.3503 -85.0803 76° East 365 420 13,300 -1,380 Descending Cleveland Center
08:15AM 43.3761 -84.9506 75° East 360 414 12,000 -1,440 Descending Cleveland Center
08:16AM 43.3992 -84.8322 75° East 343 395 10,500 -1,920 Descending Cleveland Center
08:17AM 43.4178 -84.7219 77° East 313 360 8,300 -2,040 Descending Cleveland Center
08:18AM 43.4361 -84.6117 77° East 285 328 6,500 -1,800 Descending Cleveland Center
08:19AM 43.4608 -84.4989 73° East 280 322 4,800 -1,560 Descending Cleveland Center
08:20AM 43.4956 -84.4008 64° Northeast 280 322 3,400 -1,320 Descending Cleveland Center
08:21AM 43.5297 -84.3086 63° Northeast 280 322 2,200 -600 Descending Cleveland Center
08:22AM 43.5611 -84.2417 57° Northeast 250 288 2,200  Level Cleveland Center